Time;durP1;ratioP1;P1;durP2;ratioP2;P2;SDS_P1;SDS_P2;PMS_P1;PMS_P2;Temp;Humidity;BMP_temperature;BMP_pressure;BME280_temperature;BME280_humidity;BME280_pressure;Samples;Min_cycle;Max_cycle;Signal;HPM_P1;HPM_P2
2022/02/04 00:23:35;;;;;;;6.78;4.05;;;2.70;98.00;;;;;;5052024;28;20499;-68
2022/02/04 00:26:08;;;;;;;7.55;4.47;;;2.60;98.00;;;;;;5043889;28;20053;-68
2022/02/04 00:29:06;;;;;;;8.95;4.28;;;2.60;98.00;;;;;;5041178;28;20024;-68
2022/02/04 00:31:30;;;;;;;7.22;4.80;;;2.40;98.00;;;;;;5044576;28;20064;-68
2022/02/04 00:34:06;;;;;;;7.45;4.90;;;2.10;98.00;;;;;;5036651;28;20049;-68
2022/02/04 00:36:59;;;;;;;6.85;4.50;;;1.90;98.00;;;;;;5043097;28;20111;-68
2022/02/04 00:39:36;;;;;;;7.03;4.43;;;1.70;98.00;;;;;;5042169;28;20029;-68
2022/02/04 00:42:08;;;;;;;7.25;4.35;;;1.60;98.00;;;;;;5043513;28;20032;-68
2022/02/04 00:44:36;;;;;;;8.25;4.47;;;1.40;98.00;;;;;;5053689;28;20028;-67
2022/02/04 00:47:09;;;;;;;7.93;4.47;;;1.30;98.00;;;;;;5038088;28;20477;-68
2022/02/04 00:50:03;;;;;;;8.45;5.43;;;1.30;98.00;;;;;;5054531;28;20029;-67
2022/02/04 00:52:30;;;;;;;9.82;6.05;;;1.20;98.00;;;;;;5045107;28;20080;-67
2022/02/04 00:55:13;;;;;;;7.60;4.72;;;1.10;98.00;;;;;;5048242;28;20029;-67
2022/02/04 01:06:20;;;;;;;8.55;5.25;;;1.10;97.70;;;;;;5038133;28;20103;-67
2022/02/04 01:13:04;;;;;;;9.65;5.40;;;1.10;97.80;;;;;;5048026;28;20507;-68
2022/02/04 01:28:15;;;;;;;11.18;5.90;;;0.30;96.20;;;;;;5045248;28;20505;-69
2022/02/04 01:30:43;;;;;;;11.82;5.30;;;0.40;95.60;;;;;;5039839;28;20135;-68
2022/02/04 01:33:12;;;;;;;10.05;6.10;;;0.30;95.80;;;;;;5041448;28;20032;-69
2022/02/04 01:35:37;;;;;;;10.23;6.40;;;0.40;94.50;;;;;;5046220;28;20033;-68
2022/02/04 01:38:03;;;;;;;10.60;5.88;;;0.50;94.80;;;;;;5047005;28;20079;-67
2022/02/04 01:40:31;;;;;;;8.10;5.38;;;0.40;95.50;;;;;;5047065;28;20112;-68
2022/02/04 01:42:57;;;;;;;10.82;5.45;;;0.20;95.00;;;;;;5046637;28;20033;-67
2022/02/04 01:45:22;;;;;;;9.63;5.65;;;0.10;95.40;;;;;;5047215;28;20377;-68
2022/02/04 01:47:57;;;;;;;9.43;6.13;;;0.00;94.60;;;;;;5038751;28;20418;-68
2022/02/04 01:50:27;;;;;;;9.65;6.28;;;0.10;94.10;;;;;;5045551;28;20078;-68
2022/02/04 01:52:55;;;;;;;11.70;6.97;;;0.10;94.70;;;;;;5042688;28;20029;-67
2022/02/04 01:55:21;;;;;;;10.38;6.32;;;0.20;93.60;;;;;;5049767;28;20021;-69
2022/02/04 01:57:46;;;;;;;11.07;7.07;;;0.20;94.00;;;;;;5050893;28;20032;-67
2022/02/04 02:00:13;;;;;;;9.48;6.03;;;0.40;91.90;;;;;;5049094;28;20444;-67
2022/02/04 02:02:39;;;;;;;8.40;5.45;;;0.60;92.30;;;;;;5049284;28;20025;-67
2022/02/04 02:05:05;;;;;;;10.07;6.43;;;0.80;91.70;;;;;;5043786;28;20052;-68
2022/02/04 02:07:41;;;;;;;10.40;6.60;;;0.90;92.00;;;;;;5058212;28;20056;-68
2022/02/04 02:10:10;;;;;;;11.68;7.25;;;1.10;90.60;;;;;;5044036;28;20040;-68
2022/02/04 02:13:06;;;;;;;10.95;6.78;;;1.50;89.80;;;;;;5041088;28;20572;-68
2022/02/04 02:15:33;;;;;;;10.30;6.40;;;1.60;91.00;;;;;;5043387;28;20071;-68
2022/02/04 02:58:46;;;;;;;9.68;6.18;;;3.30;98.00;;;;;;5037602;28;20431;-69
2022/02/04 03:01:12;;;;;;;9.85;6.38;;;3.30;98.00;;;;;;5048039;28;20045;-68
2022/02/04 03:03:38;;;;;;;9.23;6.53;;;3.40;98.00;;;;;;5034833;28;20441;-69
2022/02/04 03:06:08;;;;;;;12.32;7.63;;;3.40;98.00;;;;;;5038311;28;20343;-69
2022/02/04 03:08:33;;;;;;;12.68;7.80;;;3.40;98.00;;;;;;5041378;28;20044;-68
2022/02/04 03:10:59;;;;;;;12.02;7.00;;;3.40;98.00;;;;;;5042044;28;20033;-68
2022/02/04 03:13:27;;;;;;;9.88;6.70;;;3.40;98.00;;;;;;5038762;28;20089;-69
2022/02/04 03:16:01;;;;;;;10.10;6.55;;;3.40;98.00;;;;;;5044007;28;20106;-68
2022/02/04 03:18:31;;;;;;;11.77;7.45;;;3.40;98.00;;;;;;5039403;28;20017;-69
2022/02/04 03:21:03;;;;;;;11.45;7.97;;;3.50;98.00;;;;;;5044762;28;20025;-68
2022/02/04 03:23:37;;;;;;;13.88;7.00;;;3.50;98.00;;;;;;5038663;28;20195;-69
2022/02/04 03:26:10;;;;;;;10.48;7.43;;;3.60;98.00;;;;;;5042213;28;20052;-69
2022/02/04 03:28:36;;;;;;;10.55;7.95;;;3.60;98.00;;;;;;5036824;28;20033;-69
2022/02/04 03:31:03;;;;;;;10.27;6.85;;;3.60;98.00;;;;;;5046915;28;20029;-69
2022/02/04 03:33:31;;;;;;;10.52;7.18;;;3.60;98.00;;;;;;5039030;28;20104;-68
2022/02/04 03:35:56;;;;;;;12.43;8.02;;;3.50;98.00;;;;;;5039827;28;20049;-69
2022/02/04 03:38:23;;;;;;;11.50;8.23;;;3.60;98.00;;;;;;5048079;28;20041;-68
2022/02/04 03:40:49;;;;;;;11.80;8.23;;;3.70;98.00;;;;;;5043151;28;20436;-68
2022/02/04 03:43:14;;;;;;;13.02;9.05;;;3.70;98.00;;;;;;5054025;28;20028;-67
2022/02/04 03:45:40;;;;;;;12.70;8.43;;;3.70;98.00;;;;;;5054002;28;20318;-68
2022/02/04 03:48:06;;;;;;;12.45;8.35;;;3.70;98.00;;;;;;5053720;28;20032;-67
2022/02/04 03:50:32;;;;;;;12.52;8.55;;;3.70;98.00;;;;;;5057257;28;20446;-68
2022/02/04 03:52:59;;;;;;;13.60;9.82;;;3.70;98.00;;;;;;5042310;28;20140;-68
2022/02/04 03:55:25;;;;;;;15.80;9.57;;;3.70;98.00;;;;;;5054202;28;20372;-69
2022/02/04 03:57:51;;;;;;;17.02;11.02;;;3.70;98.00;;;;;;5052558;28;20046;-70
2022/02/04 04:00:18;;;;;;;17.15;11.93;;;3.70;98.00;;;;;;5044695;28;20434;-69
2022/02/04 04:02:45;;;;;;;13.60;9.43;;;3.70;98.00;;;;;;5042104;28;20038;-69
2022/02/04 04:05:12;;;;;;;15.05;10.63;;;3.70;98.00;;;;;;5064160;28;20096;-69
2022/02/04 04:07:43;;;;;;;13.90;10.23;;;3.70;98.00;;;;;;5059108;28;20021;-69
2022/02/04 04:10:14;;;;;;;16.33;10.75;;;3.70;98.00;;;;;;5049547;28;20029;-69
2022/02/04 04:12:40;;;;;;;13.68;10.23;;;3.70;98.00;;;;;;5053327;28;20033;-69
2022/02/04 04:15:08;;;;;;;12.68;9.98;;;3.70;98.00;;;;;;5046878;28;20368;-69
2022/02/04 04:17:42;;;;;;;15.23;9.90;;;3.60;98.00;;;;;;5044928;28;20029;-69
2022/02/04 04:20:12;;;;;;;;;;;3.60;98.00;;;;;;5041880;28;20475;-69
2022/02/04 04:22:39;;;;;;;13.45;9.65;;;3.70;98.00;;;;;;5046229;28;19908;-68
2022/02/04 04:25:06;;;;;;;17.67;11.65;;;3.70;98.00;;;;;;5051181;28;20045;-69
2022/02/04 04:27:32;;;;;;;16.33;10.50;;;3.70;98.00;;;;;;5056190;28;20442;-69
2022/02/04 04:29:58;;;;;;;13.52;10.02;;;3.70;98.00;;;;;;5047129;28;20044;-69
2022/02/04 04:32:24;;;;;;;15.07;10.30;;;3.70;98.00;;;;;;5042247;28;20036;-68
2022/02/04 04:34:50;;;;;;;15.10;10.45;;;3.70;98.00;;;;;;5053882;28;20029;-68
2022/02/04 04:37:15;;;;;;;13.18;9.85;;;3.70;98.00;;;;;;5049700;28;20025;-68
2022/02/04 04:40:00;;;;;;;12.18;8.57;;;3.80;98.00;;;;;;5045591;28;20024;-69
2022/02/04 05:31:18;;;;;;;12.07;8.05;;;3.90;98.00;;;;;;5056793;28;20114;-69
2022/02/04 05:33:44;;;;;;;11.88;8.38;;;3.90;98.00;;;;;;5043515;28;20021;-69
2022/02/04 05:36:10;;;;;;;15.52;9.65;;;3.90;98.00;;;;;;5047114;28;20021;-69
2022/02/04 05:38:40;;;;;;;13.88;9.50;;;3.80;98.00;;;;;;5048220;28;20013;-69
2022/02/04 05:41:14;;;;;;;15.65;9.65;;;3.90;98.00;;;;;;5038291;28;20386;-69
2022/02/04 05:43:42;;;;;;;15.38;8.75;;;3.90;98.00;;;;;;5045357;28;20363;-68
2022/02/04 05:46:18;;;;;;;14.70;9.85;;;3.90;98.00;;;;;;5046509;28;20029;-69
2022/02/04 05:48:48;;;;;;;16.05;10.35;;;3.90;98.00;;;;;;5046518;28;20041;-69
2022/02/04 05:53:54;;;;;;;16.70;10.98;;;3.90;98.00;;;;;;5047061;28;20518;-68
2022/02/04 06:07:20;;;;;;;13.00;9.32;;;3.80;98.00;;;;;;5047089;28;20432;-67
2022/02/04 06:13:35;;;;;;;13.98;9.82;;;4.00;98.00;;;;;;5046418;28;20442;-67
2022/02/04 06:23:35;;;;;;;12.32;8.18;;;4.10;98.00;;;;;;5047140;28;20214;-68
2022/02/04 06:26:01;;;;;;;12.85;8.55;;;4.10;98.00;;;;;;5051882;28;20053;-67
2022/02/04 06:28:30;;;;;;;12.43;8.63;;;4.20;98.00;;;;;;5040163;28;20422;-67
2022/02/04 06:30:55;;;;;;;13.43;8.30;;;4.20;98.00;;;;;;5048709;28;20037;-67
2022/02/04 06:33:21;;;;;;;12.48;8.65;;;4.20;98.00;;;;;;5052733;28;20330;-67
2022/02/04 06:35:50;;;;;;;13.00;8.80;;;4.30;98.00;;;;;;5047099;28;20414;-67
2022/02/04 06:38:18;;;;;;;14.20;9.48;;;4.20;98.00;;;;;;5036941;28;20043;-67
2022/02/04 06:40:44;;;;;;;12.02;8.20;;;4.20;98.00;;;;;;5039633;28;20025;-66
2022/02/04 06:43:10;;;;;;;11.75;8.07;;;4.20;98.00;;;;;;5047294;28;20495;-67
2022/02/04 06:45:36;;;;;;;13.18;9.00;;;4.30;98.00;;;;;;5049923;28;20484;-67
2022/02/04 06:48:02;;;;;;;15.65;9.18;;;4.30;98.00;;;;;;5040487;28;20025;-66
2022/02/04 06:50:30;;;;;;;14.93;10.40;;;4.30;98.00;;;;;;5039864;28;20084;-68
2022/02/04 06:53:03;;;;;;;15.98;9.95;;;4.30;98.00;;;;;;5038384;28;20083;-69
2022/02/04 06:55:29;;;;;;;16.60;9.63;;;4.30;98.00;;;;;;5050491;28;20090;-68
2022/02/04 06:57:56;;;;;;;22.13;13.90;;;4.30;98.00;;;;;;5052468;28;20028;-68
2022/02/04 07:00:25;;;;;;;15.88;10.88;;;4.30;98.00;;;;;;5052350;28;20032;-68
2022/02/04 07:02:52;;;;;;;15.70;10.57;;;4.30;98.00;;;;;;5048605;28;20040;-68
2022/02/04 07:05:22;;;;;;;18.10;10.13;;;4.20;98.00;;;;;;5042417;28;20112;-68
2022/02/04 07:08:03;;;;;;;15.88;10.85;;;4.20;98.00;;;;;;5055200;28;20025;-68
2022/02/04 07:10:58;;;;;;;14.70;10.07;;;4.30;98.00;;;;;;5046574;28;20426;-68
2022/02/04 07:15:52;;;;;;;14.73;9.73;;;4.30;98.00;;;;;;5046812;28;20355;-68
2022/02/04 07:21:03;;;;;;;;;;;4.30;98.00;;;;;;5065051;28;20338;-68
2022/02/04 07:23:33;;;;;;;15.15;9.95;;;4.30;98.00;;;;;;5061820;28;19908;-68
2022/02/04 07:25:59;;;;;;;16.73;10.73;;;4.20;98.00;;;;;;5048395;28;20041;-68
2022/02/04 07:28:25;;;;;;;14.88;10.55;;;4.20;98.00;;;;;;5058647;28;20108;-68
2022/02/04 07:30:52;;;;;;;18.58;12.00;;;4.20;98.00;;;;;;5046168;28;20061;-67
2022/02/04 07:33:21;;;;;;;17.35;11.25;;;4.20;98.00;;;;;;5053014;28;20032;-68
2022/02/04 07:38:48;;;;;;;15.00;9.73;;;4.20;98.00;;;;;;5046708;28;20025;-68
2022/02/04 07:41:16;;;;;;;14.00;9.52;;;4.30;98.00;;;;;;5056257;28;20357;-68
2022/02/04 07:43:42;;;;;;;14.23;9.18;;;4.40;98.00;;;;;;5043275;28;20106;-68
2022/02/04 07:46:11;;;;;;;15.32;9.68;;;4.40;98.00;;;;;;5048676;28;20410;-68
2022/02/04 07:48:37;;;;;;;11.98;8.43;;;4.50;98.00;;;;;;5039187;28;20040;-68
2022/02/04 07:51:03;;;;;;;11.15;7.55;;;4.50;98.00;;;;;;5048931;28;20026;-68
2022/02/04 07:53:33;;;;;;;12.52;6.40;;;4.50;98.00;;;;;;5038235;28;20028;-68
2022/02/04 07:55:59;;;;;;;10.95;7.43;;;4.60;98.00;;;;;;5042446;28;20025;-68
2022/02/04 07:58:27;;;;;;;11.80;7.78;;;4.60;98.00;;;;;;5046690;28;20025;-68
2022/02/04 08:00:56;;;;;;;10.60;6.93;;;4.60;98.00;;;;;;5040702;28;20426;-68
2022/02/04 08:05:55;;;;;;;11.65;7.60;;;4.60;98.00;;;;;;5054237;28;20033;-68
2022/02/04 08:08:30;;;;;;;14.43;8.23;;;4.50;98.00;;;;;;5038964;28;20024;-69
2022/02/04 08:14:21;;;;;;;11.60;7.90;;;4.50;98.00;;;;;;5058828;28;20048;-69
2022/02/04 08:27:01;;;;;;;12.13;8.00;;;4.50;98.00;;;;;;5038316;28;20603;-68
2022/02/04 08:59:21;;;;;;;8.95;4.82;;;5.10;98.00;;;;;;5038101;28;20326;-69
2022/02/04 09:01:54;;;;;;;7.63;4.90;;;5.80;98.00;;;;;;5037651;28;20440;-68
2022/02/04 09:04:31;;;;;;;5.90;3.85;;;6.40;97.70;;;;;;5044977;28;20318;-68
2022/02/04 09:07:03;;;;;;;7.95;4.22;;;6.50;96.10;;;;;;5048153;28;20044;-68
2022/02/04 09:09:46;;;;;;;5.93;3.75;;;6.50;95.60;;;;;;5038585;28;20109;-69
2022/02/04 09:22:54;;;;;;;7.15;3.80;;;6.40;94.10;;;;;;5038802;28;20657;-68
2022/02/04 09:25:20;;;;;;;6.55;3.25;;;6.10;95.20;;;;;;5037652;28;20077;-68
2022/02/04 09:27:46;;;;;;;7.65;3.72;;;5.80;96.20;;;;;;5036575;28;20044;-68
2022/02/04 09:30:14;;;;;;;7.35;4.20;;;5.70;97.00;;;;;;5039056;28;20127;-68
2022/02/04 09:32:41;;;;;;;7.05;4.45;;;5.60;97.60;;;;;;5056033;28;20478;-68
2022/02/04 09:35:18;;;;;;;7.70;4.75;;;5.60;98.00;;;;;;5053957;28;20053;-69
2022/02/04 09:37:48;;;;;;;7.60;4.43;;;5.60;98.00;;;;;;5056712;28;20036;-68
2022/02/04 09:40:14;;;;;;;7.78;4.88;;;5.60;98.00;;;;;;5043833;28;20041;-68
2022/02/04 09:42:42;;;;;;;6.05;3.20;;;5.60;98.00;;;;;;5053736;28;20052;-68
2022/02/04 09:45:10;;;;;;;8.23;4.32;;;5.50;97.60;;;;;;5045060;28;20321;-68
2022/02/04 09:47:37;;;;;;;10.02;4.65;;;5.40;97.90;;;;;;5036012;28;20029;-68
2022/02/04 09:50:06;;;;;;;10.65;4.72;;;5.40;98.00;;;;;;5040034;28;20029;-68
2022/02/04 10:17:15;;;;;;;13.27;7.70;;;5.90;97.30;;;;;;5038239;28;20036;-68
2022/02/04 10:22:23;;;;;;;7.30;3.97;;;6.40;96.60;;;;;;5037764;28;20036;-68
2022/02/04 10:25:12;;;;;;;5.88;3.35;;;6.50;96.00;;;;;;5036479;28;20178;-68
2022/02/04 10:27:40;;;;;;;6.32;3.72;;;6.50;95.10;;;;;;5043720;28;20414;-68
2022/02/04 10:30:10;;;;;;;8.05;4.30;;;6.60;95.10;;;;;;5056304;28;20025;-68
2022/02/04 10:32:38;;;;;;;9.65;4.88;;;6.60;95.40;;;;;;5052504;28;20036;-68
2022/02/04 10:35:33;;;;;;;8.05;4.95;;;6.70;95.50;;;;;;5036896;28;20044;-68
2022/02/04 10:40:52;;;;;;;8.48;4.97;;;6.60;95.30;;;;;;5054459;28;20322;-68
2022/02/04 10:46:44;;;;;;;8.27;4.10;;;6.60;95.60;;;;;;5036401;28;20044;-68
2022/02/04 10:52:09;;;;;;;8.38;4.50;;;7.20;94.40;;;;;;5035986;28;20040;-68
2022/02/04 10:57:42;;;;;;;3.90;1.85;;;7.40;92.80;;;;;;5056093;28;20112;-69
2022/02/04 11:05:21;;;;;;;3.70;1.83;;;6.60;91.90;;;;;;5052029;28;20040;-67
2022/02/04 11:30:53;;;;;;;4.93;2.45;;;6.90;92.60;;;;;;5045995;28;20044;-67
2022/02/04 11:33:28;;;;;;;4.47;2.40;;;6.60;92.10;;;;;;5045587;28;20488;-66
2022/02/04 11:36:25;;;;;;;4.30;2.10;;;6.50;92.60;;;;;;5047740;28;20061;-67
2022/02/04 11:56:56;;;;;;;4.40;2.40;;;6.10;94.30;;;;;;5037136;28;20108;-68
2022/02/04 11:59:45;;;;;;;4.93;2.50;;;6.20;94.10;;;;;;5046175;28;20112;-68
2022/02/04 12:02:29;;;;;;;6.15;2.40;;;6.10;94.30;;;;;;5041758;28;20037;-67
2022/02/04 12:05:05;;;;;;;4.13;2.15;;;6.10;94.70;;;;;;5038917;28;20418;-67
2022/02/04 12:07:35;;;;;;;4.80;2.60;;;6.20;95.10;;;;;;5043601;28;20032;-67
2022/02/04 12:10:03;;;;;;;4.57;2.28;;;6.40;95.30;;;;;;5045725;28;20112;-68
2022/02/04 12:12:54;;;;;;;4.10;2.13;;;6.50;94.70;;;;;;5050475;28;20496;-67
2022/02/04 12:15:42;;;;;;;3.65;2.13;;;6.30;94.40;;;;;;5037683;28;20061;-67
2022/02/04 12:18:11;;;;;;;4.47;2.53;;;6.00;94.60;;;;;;5054768;28;20409;-67
2022/02/04 12:20:55;;;;;;;5.85;3.13;;;6.00;95.20;;;;;;5047165;28;20326;-66
2022/02/04 12:23:32;;;;;;;9.50;3.90;;;5.90;96.00;;;;;;5039824;28;20025;-67
2022/02/04 12:25:58;;;;;;;5.47;2.92;;;5.80;96.60;;;;;;5038284;28;20041;-67
2022/02/04 12:29:06;;;;;;;4.90;2.75;;;5.80;96.60;;;;;;5041990;28;20152;-67
2022/02/04 12:31:40;;;;;;;5.03;2.55;;;5.90;96.60;;;;;;5046775;28;20098;-67
2022/02/04 12:34:18;;;;;;;5.63;2.80;;;5.80;96.30;;;;;;5050410;28;20052;-67
2022/02/04 12:36:50;;;;;;;7.80;3.72;;;5.70;96.70;;;;;;5048143;28;20325;-67
2022/02/04 12:39:19;;;;;;;12.10;4.63;;;5.70;97.30;;;;;;5056927;28;20100;-67
2022/02/04 12:41:51;;;;;;;6.45;3.03;;;5.70;97.10;;;;;;5044746;28;20025;-67
2022/02/04 12:44:19;;;;;;;6.85;2.90;;;5.70;96.80;;;;;;5055621;28;20046;-67
2022/02/04 12:46:47;;;;;;;6.20;3.00;;;5.60;96.90;;;;;;5057649;28;20060;-67
2022/02/04 12:49:20;;;;;;;7.57;3.58;;;5.50;97.30;;;;;;5044618;28;20103;-67
2022/02/04 12:54:23;;;;;;;20.70;9.82;;;5.60;97.80;;;;;;5043340;28;20029;-66
2022/02/04 13:07:55;;;;;;;5.13;2.90;;;5.30;98.00;;;;;;5041544;28;20056;-67
2022/02/04 13:10:29;;;;;;;11.45;6.50;;;5.20;98.00;;;;;;5043269;28;20039;-67
2022/02/04 13:13:02;;;;;;;14.68;6.97;;;5.10;98.00;;;;;;5045115;28;20036;-68
2022/02/04 13:15:32;;;;;;;7.35;4.15;;;5.20;98.00;;;;;;5043678;28;20078;-67
2022/02/04 13:17:58;;;;;;;6.53;3.60;;;5.20;98.00;;;;;;5044836;28;20071;-67
2022/02/04 13:20:26;;;;;;;9.50;3.50;;;5.20;98.00;;;;;;5042663;28;20029;-68
2022/02/04 13:22:54;;;;;;;6.32;2.60;;;5.20;98.00;;;;;;5041314;28;20028;-68
2022/02/04 13:25:25;;;;;;;6.05;2.92;;;5.30;98.00;;;;;;5044047;28;20048;-68
2022/02/04 13:28:08;;;;;;;6.40;2.70;;;5.30;98.00;;;;;;5043874;28;20033;-68
2022/02/04 13:30:37;;;;;;;7.07;3.00;;;5.20;98.00;;;;;;5041251;28;20037;-67
2022/02/04 13:33:14;;;;;;;4.72;2.65;;;5.20;98.00;;;;;;5046759;28;20033;-67
2022/02/04 13:35:42;;;;;;;5.65;3.22;;;5.20;98.00;;;;;;5042673;28;20021;-67
2022/02/04 13:38:27;;;;;;;8.95;4.10;;;5.20;98.00;;;;;;5042118;28;20044;-67
2022/02/04 13:41:11;;;;;;;13.55;6.63;;;5.20;98.00;;;;;;5043099;28;20307;-67
2022/02/04 13:46:25;;;;;;;11.45;5.63;;;5.40;98.00;;;;;;5046415;28;20460;-67
2022/02/04 13:49:04;;;;;;;11.55;6.25;;;5.30;98.00;;;;;;5041082;28;20445;-68
2022/02/04 13:51:42;;;;;;;13.30;7.10;;;5.30;98.00;;;;;;5043224;28;20112;-67
2022/02/04 13:54:24;;;;;;;12.80;7.20;;;5.30;98.00;;;;;;5040033;28;20095;-67
2022/02/04 14:00:23;;;;;;;10.25;5.13;;;5.20;98.00;;;;;;5038606;28;20330;-67
2022/02/04 14:02:53;;;;;;;16.08;9.05;;;5.10;98.00;;;;;;5036237;28;20029;-67
2022/02/04 14:05:32;;;;;;;9.40;5.28;;;5.10;98.00;;;;;;5038586;28;20121;-67
2022/02/04 14:08:07;;;;;;;14.27;7.60;;;5.10;98.00;;;;;;5037480;28;20033;-67
2022/02/04 14:10:39;;;;;;;9.73;4.85;;;5.10;98.00;;;;;;5039033;28;20048;-68
2022/02/04 14:13:10;;;;;;;9.40;5.05;;;5.00;98.00;;;;;;5036826;28;20056;-68
2022/02/04 14:15:38;;;;;;;6.72;3.95;;;5.00;98.00;;;;;;5036691;28;20025;-67
2022/02/04 14:18:08;;;;;;;9.13;4.22;;;5.10;98.00;;;;;;5035483;28;20018;-67
2022/02/04 14:20:36;;;;;;;7.28;4.65;;;5.10;98.00;;;;;;5037582;28;20022;-68
2022/02/04 14:23:04;;;;;;;7.05;4.13;;;5.10;98.00;;;;;;5036447;28;20080;-67
2022/02/04 14:25:30;;;;;;;10.20;5.50;;;5.10;98.00;;;;;;5036205;28;20343;-67
2022/02/04 14:27:59;;;;;;;5.28;2.65;;;5.10;98.00;;;;;;5036554;28;20048;-67
2022/02/04 14:30:31;;;;;;;4.63;2.55;;;5.10;97.90;;;;;;5036512;28;20029;-66
2022/02/04 14:33:15;;;;;;;6.05;2.58;;;5.10;97.50;;;;;;5035160;28;20032;-66
2022/02/04 14:35:52;;;;;;;4.35;1.83;;;5.10;97.60;;;;;;5037427;28;20098;-66
2022/02/04 15:03:26;;;;;;;3.30;1.67;;;5.30;91.70;;;;;;5052808;28;20055;-68
2022/02/04 15:05:22;;;;;;;3.15;1.80;;;5.20;92.30;;;;;;5055898;28;20365;-67
2022/02/04 15:07:50;;;;;;;3.22;1.60;;;5.20;92.60;;;;;;5053020;28;20313;-67
2022/02/04 15:10:28;;;;;;;5.13;2.30;;;5.30;93.10;;;;;;5054928;28;20039;-67
2022/02/04 15:12:55;;;;;;;4.25;2.22;;;5.30;93.50;;;;;;5055674;28;20025;-67
2022/02/04 15:15:21;;;;;;;5.63;2.88;;;5.40;92.70;;;;;;5053918;28;20425;-68
2022/02/04 15:17:47;;;;;;;5.47;2.05;;;5.40;92.30;;;;;;5036806;28;20036;-67
2022/02/04 15:20:15;;;;;;;5.93;2.90;;;5.30;92.20;;;;;;5036078;28;20108;-67
2022/02/04 15:22:41;;;;;;;4.53;2.13;;;5.30;92.50;;;;;;5054900;28;20098;-67
2022/02/04 15:25:17;;;;;;;3.47;1.73;;;5.30;92.30;;;;;;5047119;28;20117;-67
2022/02/04 15:27:52;;;;;;;4.63;1.80;;;5.30;92.60;;;;;;5035877;28;20116;-67
2022/02/04 15:30:24;;;;;;;2.70;1.40;;;5.30;92.70;;;;;;5036917;28;20112;-67
2022/02/04 15:32:50;;;;;;;1.42;0.98;;;5.30;92.60;;;;;;5049359;28;20104;-67
2022/02/04 15:35:16;;;;;;;1.85;1.10;;;5.20;92.30;;;;;;5045794;28;20045;-67
2022/02/04 15:37:41;;;;;;;7.40;3.05;;;5.10;92.50;;;;;;5045421;28;20407;-67
2022/02/04 15:40:09;;;;;;;8.80;4.88;;;5.10;93.00;;;;;;5059679;28;20080;-67
2022/02/04 15:42:36;;;;;;;4.10;1.70;;;5.10;93.60;;;;;;5057883;28;20052;-67
2022/02/04 15:45:40;;;;;;;4.00;2.00;;;5.10;93.70;;;;;;5059452;28;20041;-67
2022/02/04 15:51:44;;;;;;;2.85;1.40;;;5.00;94.40;;;;;;5039647;28;20036;-68
2022/02/04 15:53:51;;;;;;;3.13;1.60;;;5.00;94.20;;;;;;5044036;28;20037;-67
2022/02/04 15:56:42;;;;;;;1.80;1.20;;;5.10;93.90;;;;;;5039309;28;20024;-68
2022/02/04 16:01:58;;;;;;;3.00;1.60;;;5.00;93.30;;;;;;5050073;28;20045;-68
2022/02/04 16:04:27;;;;;;;1.73;1.08;;;5.00;93.60;;;;;;5039412;28;20030;-67
2022/02/04 16:06:53;;;;;;;2.13;1.00;;;5.00;93.40;;;;;;5051913;28;20053;-67
2022/02/04 16:09:23;;;;;;;2.13;1.20;;;5.00;92.90;;;;;;5038991;28;20309;-67
2022/02/04 16:14:41;;;;;;;1.85;1.00;;;5.00;93.10;;;;;;5058641;28;20067;-67
2022/02/04 16:19:40;;;;;;;1.25;0.90;;;5.10;92.40;;;;;;5049874;28;20025;-67
2022/02/04 16:22:17;;;;;;;5.25;3.55;;;5.10;92.00;;;;;;5054621;28;20039;-67
2022/02/04 16:25:02;;;;;;;6.15;3.95;;;5.10;92.20;;;;;;5058452;28;20071;-67
2022/02/04 16:30:05;;;;;;;0.90;0.75;;;5.20;91.90;;;;;;5058744;28;20079;-67
2022/02/04 16:32:32;;;;;;;2.67;1.23;;;5.30;91.70;;;;;;5055695;28;20061;-68
2022/02/04 16:35:01;;;;;;;5.22;2.75;;;5.40;91.70;;;;;;5058750;28;20074;-66
2022/02/04 16:37:30;;;;;;;1.75;0.88;;;5.40;91.70;;;;;;5055163;28;20020;-67
2022/02/04 16:39:57;;;;;;;1.75;1.10;;;5.40;91.60;;;;;;5058299;28;20060;-67
2022/02/04 16:42:23;;;;;;;0.98;0.80;;;5.50;91.80;;;;;;5056635;28;20063;-67
2022/02/04 16:44:49;;;;;;;1.02;0.70;;;5.60;91.60;;;;;;5047208;28;20441;-67
2022/02/04 16:47:15;;;;;;;1.98;0.90;;;5.70;91.50;;;;;;5055335;28;20095;-67
2022/02/04 16:49:41;;;;;;;1.15;0.80;;;5.70;91.30;;;;;;5058334;28;20418;-67
2022/02/04 16:52:07;;;;;;;1.23;0.80;;;5.70;91.60;;;;;;5044992;28;20030;-67
2022/02/04 16:54:34;;;;;;;1.55;0.90;;;5.70;91.60;;;;;;5038342;28;20071;-67
2022/02/04 16:57:00;;;;;;;1.75;1.10;;;5.70;91.70;;;;;;5050684;28;20041;-68
2022/02/04 16:59:26;;;;;;;1.05;0.80;;;5.80;92.00;;;;;;5040781;28;20036;-68
2022/02/04 17:01:53;;;;;;;1.60;1.02;;;5.80;91.80;;;;;;5055938;28;20025;-67
2022/02/04 17:04:19;;;;;;;1.73;0.90;;;5.80;91.80;;;;;;5046587;28;20025;-67
2022/02/04 17:06:49;;;;;;;1.85;1.00;;;5.70;91.90;;;;;;5051950;28;20291;-67
2022/02/04 17:11:46;;;;;;;1.05;0.80;;;5.80;92.00;;;;;;5057813;28;20029;-69
2022/02/04 17:14:13;;;;;;;1.60;0.82;;;5.70;92.10;;;;;;5056979;28;20100;-68
2022/02/04 17:16:42;;;;;;;4.03;1.67;;;5.80;92.20;;;;;;5047165;28;20025;-67
2022/02/04 17:19:12;;;;;;;1.00;0.70;;;5.80;92.20;;;;;;5037715;28;20318;-67
2022/02/04 17:21:43;;;;;;;1.90;1.05;;;5.70;92.60;;;;;;5039503;28;20059;-67
2022/02/04 17:24:14;;;;;;;1.70;0.95;;;5.80;92.80;;;;;;5037347;28;20414;-67
2022/02/04 17:26:43;;;;;;;3.47;1.75;;;5.90;92.40;;;;;;5038647;28;20030;-66
2022/02/04 17:29:10;;;;;;;3.15;1.83;;;5.90;92.30;;;;;;5036599;28;20318;-66
2022/02/04 17:31:37;;;;;;;2.97;1.33;;;5.80;92.70;;;;;;5044754;28;20426;-67
2022/02/04 17:34:05;;;;;;;1.65;0.93;;;5.80;92.80;;;;;;5056370;28;20467;-68
2022/02/04 17:36:36;;;;;;;1.75;0.90;;;5.80;93.00;;;;;;5051200;28;20022;-68
2022/02/04 17:39:16;;;;;;;1.52;0.93;;;5.80;93.00;;;;;;5037436;28;20018;-68
2022/02/04 17:41:42;;;;;;;3.25;1.27;;;5.90;93.00;;;;;;5037590;28;20068;-68
2022/02/04 17:44:08;;;;;;;3.03;0.75;;;5.90;93.00;;;;;;5037228;28;20033;-68
2022/02/04 17:46:34;;;;;;;2.55;1.30;;;6.00;92.90;;;;;;5038275;28;20029;-68
2022/02/04 17:49:10;;;;;;;6.85;3.40;;;6.10;92.70;;;;;;5054016;28;20444;-68
2022/02/04 17:51:44;;;;;;;3.92;2.08;;;6.10;92.70;;;;;;5050750;28;20513;-67
2022/02/04 17:54:14;;;;;;;3.63;2.30;;;6.10;92.70;;;;;;5041527;28;20025;-67
2022/02/04 17:56:59;;;;;;;3.35;2.03;;;6.10;93.30;;;;;;5038070;28;20022;-67
2022/02/04 18:02:24;;;;;;;5.40;2.63;;;6.10;93.90;;;;;;5043393;28;20090;-66
2022/02/04 18:07:34;;;;;;;;;;;6.10;94.30;;;;;;5038366;28;20079;-68
2022/02/04 18:09:59;;;;;;;5.78;3.10;;;6.00;94.40;;;;;;5036951;28;19905;-67
2022/02/04 18:12:28;;;;;;;2.47;1.20;;;6.00;94.40;;;;;;5051045;28;20029;-67
2022/02/04 18:14:54;;;;;;;2.13;1.00;;;6.00;94.50;;;;;;5049021;28;20021;-67
2022/02/04 18:17:20;;;;;;;2.28;1.20;;;6.00;94.50;;;;;;5035572;28;20013;-67
2022/02/04 18:19:46;;;;;;;3.85;1.92;;;6.10;94.60;;;;;;5037754;28;20021;-67
2022/02/04 18:22:13;;;;;;;3.40;0.95;;;6.10;94.40;;;;;;5046542;28;20028;-67
2022/02/04 18:24:39;;;;;;;3.60;1.70;;;6.10;94.60;;;;;;5040069;28;20307;-67
2022/02/04 18:27:08;;;;;;;1.42;1.00;;;6.20;94.50;;;;;;5055736;28;20392;-67
2022/02/04 18:29:41;;;;;;;3.38;2.00;;;6.20;94.50;;;;;;5053948;28;20433;-67
2022/02/04 18:32:08;;;;;;;1.92;1.20;;;6.10;94.60;;;;;;5044976;28;20421;-68
2022/02/04 18:34:33;;;;;;;4.15;2.40;;;6.10;94.70;;;;;;5048458;28;20335;-68
2022/02/04 18:37:01;;;;;;;3.38;1.60;;;6.10;94.90;;;;;;5054317;28;20021;-68
2022/02/04 18:44:51;;;;;;;4.53;2.30;;;6.10;95.00;;;;;;5055550;28;20032;-69
2022/02/04 18:49:53;;;;;;;2.78;1.35;;;6.20;94.90;;;;;;5055393;28;20044;-68
2022/02/04 18:52:33;;;;;;;2.75;1.42;;;6.20;95.00;;;;;;5052877;28;20025;-67
2022/02/04 18:57:31;;;;;;;4.63;1.63;;;6.20;95.90;;;;;;5035516;28;20027;-68
2022/02/04 19:00:01;;;;;;;2.67;1.33;;;6.10;96.30;;;;;;5035172;28;20021;-68
2022/02/04 19:02:30;;;;;;;2.67;1.25;;;6.10;96.20;;;;;;5042081;28;20748;-68
2022/02/04 19:05:09;;;;;;;3.42;1.73;;;6.20;96.20;;;;;;5035218;28;20038;-68
2022/02/04 19:07:49;;;;;;;1.75;1.00;;;6.20;95.90;;;;;;5035057;28;20445;-68
2022/02/04 19:10:15;;;;;;;1.95;0.95;;;6.30;95.60;;;;;;5035139;28;20315;-68
2022/02/04 19:12:51;;;;;;;2.08;1.23;;;6.30;95.50;;;;;;5034605;28;20037;-68
2022/02/04 19:15:25;;;;;;;3.85;1.60;;;6.30;95.50;;;;;;5036940;28;20026;-67
2022/02/04 19:17:57;;;;;;;3.60;1.08;;;6.30;95.50;;;;;;5034832;28;20033;-68
2022/02/04 19:20:43;;;;;;;2.47;1.27;;;6.30;95.70;;;;;;5053073;28;20037;-68
2022/02/04 19:23:13;;;;;;;3.80;1.30;;;6.30;96.20;;;;;;5034848;28;20032;-68
2022/02/04 19:25:41;;;;;;;5.05;2.20;;;6.20;96.70;;;;;;4998637;28;1147158;-67
2022/02/04 19:28:09;;;;;;;4.63;1.95;;;6.20;96.80;;;;;;5055539;28;20041;-69
2022/02/04 19:30:47;;;;;;;4.88;2.10;;;6.20;96.70;;;;;;5050660;28;20025;-68
2022/02/04 19:33:15;;;;;;;4.90;2.50;;;6.10;96.80;;;;;;5046891;28;20025;-68
2022/02/04 19:35:41;;;;;;;3.03;1.42;;;6.10;96.80;;;;;;5048836;28;20410;-67
2022/02/04 19:38:07;;;;;;;2.60;1.40;;;6.20;96.60;;;;;;5046486;28;20060;-67
2022/02/04 19:40:33;;;;;;;3.38;1.60;;;6.20;96.50;;;;;;5034623;28;20025;-67